createdAt,value
2022-09-26T00:00:04.116Z,6.27
2022-09-26T00:00:49.335Z,5.83
2022-09-26T00:01:24.865Z,6.37
2022-09-26T00:01:59.952Z,5.93
2022-09-26T00:02:32.324Z,6.43
2022-09-26T00:03:04.751Z,6.27
2022-09-26T00:03:37.540Z,6.20
2022-09-26T00:04:23.340Z,6.30
2022-09-26T00:04:56.142Z,5.93
2022-09-26T00:05:28.451Z,5.40
2022-09-26T00:06:04.558Z,6.27
2022-09-26T00:06:37.067Z,5.63
2022-09-26T00:07:09.374Z,6.70
2022-09-26T00:07:44.278Z,6.70
2022-09-26T00:08:16.583Z,7.07
2022-09-26T00:08:50.291Z,7.13
2022-09-26T00:09:30.391Z,7.67
2022-09-26T00:10:02.738Z,7.40
2022-09-26T00:10:35.282Z,6.80
2022-09-26T00:11:12.335Z,6.77
2022-09-26T00:11:45.255Z,7.00
2022-09-26T00:12:17.617Z,7.40
2022-09-26T00:12:53.395Z,7.63
2022-09-26T00:13:26.084Z,6.50
2022-09-26T00:14:00.177Z,7.30
2022-09-26T00:14:35.179Z,6.93
2022-09-26T00:15:08.719Z,7.53
2022-09-26T00:15:41.007Z,7.33
2022-09-26T00:16:15.520Z,6.87
2022-09-26T00:16:50.942Z,7.13
2022-09-26T00:17:23.362Z,8.30
2022-09-26T00:17:55.647Z,7.10
2022-09-26T00:18:28.096Z,7.20
2022-09-26T00:19:03.045Z,7.40
2022-09-26T00:19:35.334Z,7.77
2022-09-26T00:20:08.718Z,7.30
2022-09-26T00:20:43.685Z,7.70
2022-09-26T00:21:16.263Z,7.00
2022-09-26T00:21:48.942Z,7.57
2022-09-26T00:22:23.863Z,7.10
2022-09-26T00:22:56.150Z,7.80
2022-09-26T00:23:28.498Z,7.70
2022-09-26T00:24:04.859Z,7.53
2022-09-26T00:24:39.814Z,7.53
2022-09-26T00:25:12.166Z,6.93
2022-09-26T00:25:49.810Z,6.97
2022-09-26T00:26:23.253Z,7.00
2022-09-26T00:26:55.549Z,6.87
2022-09-26T00:27:30.478Z,6.93
2022-09-26T00:28:02.793Z,6.80
2022-09-26T00:28:35.396Z,6.90
2022-09-26T00:29:12.442Z,6.87
2022-09-26T00:29:44.835Z,7.00
2022-09-26T00:30:17.284Z,6.50
2022-09-26T00:30:52.257Z,7.40
2022-09-26T00:31:27.018Z,6.70
2022-09-26T00:31:59.380Z,7.53
2022-09-26T00:32:37.142Z,6.33
2022-09-26T00:33:09.433Z,6.80
2022-09-26T00:33:42.003Z,7.00
2022-09-26T00:34:18.811Z,6.40
2022-09-26T00:34:51.159Z,6.10
2022-09-26T00:35:23.566Z,6.50
2022-09-26T00:35:56.129Z,6.33
2022-09-26T00:36:38.151Z,6.70
2022-09-26T00:37:11.086Z,6.73
2022-09-26T00:37:45.991Z,6.77
2022-09-26T00:38:18.554Z,7.13
2022-09-26T00:38:51.200Z,7.60
2022-09-26T00:39:26.133Z,6.67
2022-09-26T00:40:01.785Z,6.50
2022-09-26T00:40:34.152Z,6.90
2022-09-26T00:41:07.453Z,6.53
2022-09-26T00:41:42.544Z,6.93
2022-09-26T00:42:15.761Z,6.80
2022-09-26T00:42:48.148Z,7.30
2022-09-26T00:43:29.868Z,7.20
2022-09-26T00:44:05.080Z,7.40
2022-09-26T00:44:46.574Z,6.43
2022-09-26T00:45:19.312Z,6.73
2022-09-26T00:45:54.333Z,6.80
2022-09-26T00:46:30.701Z,6.53
2022-09-26T00:47:03.455Z,7.47
2022-09-26T00:47:43.556Z,6.70
2022-09-26T00:48:15.867Z,6.63
2022-09-26T00:48:50.649Z,6.50
2022-09-26T00:49:29.177Z,7.43
2022-09-26T00:50:04.177Z,6.60
2022-09-26T00:50:42.143Z,6.93
2022-09-26T00:51:15.003Z,7.10
2022-09-26T00:51:51.384Z,7.57
2022-09-26T00:52:29.607Z,6.53
2022-09-26T00:53:04.559Z,6.50
2022-09-26T00:53:43.306Z,6.70
2022-09-26T00:54:18.290Z,6.50
2022-09-26T00:54:52.246Z,7.27
2022-09-26T00:55:35.263Z,7.10
2022-09-26T00:56:11.524Z,6.60
2022-09-26T00:56:45.587Z,7.47
2022-09-26T00:57:20.061Z,6.67
2022-09-26T00:57:58.767Z,6.87
2022-09-26T00:58:33.207Z,6.27
2022-09-26T00:59:12.744Z,7.00
2022-09-26T00:59:51.636Z,6.67
2022-09-26T01:00:24.142Z,6.60
2022-09-26T01:00:58.450Z,7.00
2022-09-26T01:01:33.646Z,6.60
2022-09-26T01:02:06.423Z,7.03
2022-09-26T01:02:39.683Z,7.43
2022-09-26T01:03:15.643Z,7.40
2022-09-26T01:03:49.565Z,7.50
2022-09-26T01:04:23.060Z,6.87
2022-09-26T01:04:58.617Z,6.77
2022-09-26T01:05:33.059Z,7.17
2022-09-26T01:06:08.317Z,7.20
2022-09-26T01:06:41.171Z,6.63
2022-09-26T01:07:17.765Z,6.73
2022-09-26T01:07:53.337Z,8.13
2022-09-26T01:08:28.682Z,7.07
2022-09-26T01:09:07.801Z,7.93
2022-09-26T01:09:42.914Z,7.20
2022-09-26T01:10:15.978Z,7.20
2022-09-26T01:10:51.049Z,7.43
2022-09-26T01:11:26.146Z,7.17
2022-09-26T01:12:00.334Z,7.30
2022-09-26T01:12:33.247Z,7.90
2022-09-26T01:13:08.857Z,6.90
2022-09-26T01:13:41.984Z,7.13
2022-09-26T01:14:14.902Z,8.13
2022-09-26T01:14:47.866Z,6.83
2022-09-26T01:15:22.967Z,7.03
2022-09-26T01:15:55.254Z,7.27
2022-09-26T01:16:27.753Z,7.47
2022-09-26T01:17:02.877Z,7.37
2022-09-26T01:17:36.123Z,7.33
2022-09-26T01:18:10.950Z,7.23
2022-09-26T01:18:46.528Z,7.33
2022-09-26T01:19:24.119Z,8.20
2022-09-26T01:20:23.015Z,7.90
2022-09-26T01:21:00.434Z,7.63
2022-09-26T01:21:46.111Z,6.87
2022-09-26T01:22:41.609Z,7.97
2022-09-26T01:23:40.662Z,7.63
2022-09-26T01:24:33.299Z,7.97
2022-09-26T01:25:19.566Z,7.63
2022-09-26T01:26:16.253Z,6.43
2022-09-26T01:27:13.143Z,8.70
2022-09-26T01:27:57.911Z,7.73
2022-09-26T01:28:42.547Z,7.53
2022-09-26T01:29:39.191Z,7.60
2022-09-26T01:30:15.585Z,7.90
2022-09-26T01:31:00.677Z,7.90
2022-09-26T01:31:37.831Z,7.73
2022-09-26T01:32:35.648Z,7.97
2022-09-26T01:33:32.517Z,7.53
2022-09-26T01:34:10.689Z,7.17
2022-09-26T01:34:50.971Z,6.83
2022-09-26T01:35:36.969Z,7.60
2022-09-26T01:36:40.794Z,7.10
2022-09-26T01:37:23.095Z,7.90
2022-09-26T01:38:15.952Z,7.53
2022-09-26T01:39:00.945Z,8.20
2022-09-26T01:39:44.876Z,7.63
2022-09-26T01:40:22.383Z,7.77
2022-09-26T01:41:08.332Z,7.80
2022-09-26T01:41:49.995Z,7.70
2022-09-26T01:42:26.455Z,7.60
2022-09-26T01:43:08.674Z,7.50
2022-09-26T01:43:45.919Z,7.27
2022-09-26T01:44:29.657Z,8.13
2022-09-26T01:45:10.351Z,7.50
2022-09-26T01:45:52.309Z,7.13
2022-09-26T01:46:33.882Z,7.67
2022-09-26T01:47:12.306Z,8.00
2022-09-26T01:47:47.281Z,7.53
2022-09-26T01:48:24.684Z,7.80
2022-09-26T01:49:01.671Z,7.40
2022-09-26T01:49:37.663Z,7.90
2022-09-26T01:50:17.517Z,8.17
2022-09-26T01:50:51.914Z,7.50
2022-09-26T01:51:28.594Z,7.70
2022-09-26T01:52:08.021Z,8.20
2022-09-26T01:52:45.131Z,7.90
2022-09-26T01:53:20.413Z,7.57
2022-09-26T01:54:02.082Z,7.30
2022-09-26T01:54:37.060Z,8.20
2022-09-26T01:55:12.175Z,8.33
2022-09-26T01:55:51.592Z,8.23
2022-09-26T01:56:25.803Z,7.40
2022-09-26T01:56:58.879Z,7.47
2022-09-26T01:57:38.518Z,7.63
2022-09-26T01:58:14.159Z,7.00
2022-09-26T01:58:50.408Z,7.37
2022-09-26T01:59:29.029Z,7.77
2022-09-26T02:00:06.028Z,7.40
2022-09-26T02:00:50.683Z,7.20
2022-09-26T02:01:29.996Z,8.50
2022-09-26T02:02:05.304Z,8.23
2022-09-26T02:02:41.721Z,7.97
2022-09-26T02:03:21.214Z,8.07
2022-09-26T02:03:55.986Z,7.30
2022-09-26T02:04:30.122Z,7.40
2022-09-26T02:05:09.088Z,8.27
2022-09-26T02:05:46.878Z,8.00
2022-09-26T02:06:25.615Z,7.83
2022-09-26T02:07:00.282Z,8.87
2022-09-26T02:07:37.587Z,7.10
2022-09-26T02:08:15.778Z,7.40
2022-09-26T02:08:54.659Z,7.00
2022-09-26T02:09:30.042Z,6.97
2022-09-26T02:10:08.567Z,7.33
2022-09-26T02:10:44.024Z,7.07
2022-09-26T02:11:21.637Z,6.93
2022-09-26T02:11:56.790Z,7.57
2022-09-26T02:12:33.029Z,7.70
2022-09-26T02:13:08.968Z,8.53
2022-09-26T02:13:48.908Z,8.07
2022-09-26T02:14:25.543Z,6.90
2022-09-26T02:15:00.761Z,7.27
2022-09-26T02:15:38.031Z,7.13
2022-09-26T02:16:17.963Z,7.73
2022-09-26T02:16:51.749Z,7.97
2022-09-26T02:17:31.518Z,7.80
2022-09-26T02:18:11.459Z,7.33
2022-09-26T02:18:46.655Z,7.10
2022-09-26T02:19:25.533Z,7.60
2022-09-26T02:20:00.793Z,7.70
2022-09-26T02:20:38.154Z,7.60
2022-09-26T02:21:13.415Z,7.10
2022-09-26T02:21:46.070Z,7.43
2022-09-26T02:22:21.149Z,7.90
2022-09-26T02:22:53.475Z,7.83
2022-09-26T02:23:25.808Z,7.20
2022-09-26T02:24:01.794Z,7.53
2022-09-26T02:24:36.879Z,7.10
2022-09-26T02:25:10.420Z,7.40
2022-09-26T02:25:46.080Z,8.60
2022-09-26T02:26:19.942Z,7.63
2022-09-26T02:26:55.519Z,6.73
2022-09-26T02:27:28.392Z,8.20
2022-09-26T02:28:01.247Z,8.00
2022-09-26T02:28:36.378Z,7.87
2022-09-26T02:29:10.066Z,7.57
2022-09-26T02:29:44.200Z,8.20
2022-09-26T02:30:20.243Z,7.73
2022-09-26T02:30:53.428Z,8.50
2022-09-26T02:31:32.207Z,7.17
2022-09-26T02:32:15.571Z,8.17
2022-09-26T02:32:48.484Z,8.13
2022-09-26T02:33:21.257Z,7.57
2022-09-26T02:33:56.700Z,8.30
2022-09-26T02:34:32.035Z,7.50
2022-09-26T02:35:34.903Z,7.50
2022-09-26T02:36:13.579Z,7.43
2022-09-26T02:36:46.574Z,7.30
2022-09-26T02:37:21.253Z,7.60
2022-09-26T02:37:53.644Z,8.37
2022-09-26T02:38:31.622Z,8.90
2022-09-26T02:39:26.941Z,8.10
2022-09-26T02:40:20.876Z,8.30
2022-09-26T02:41:00.347Z,8.70
2022-09-26T02:41:39.371Z,8.27
2022-09-26T02:42:18.942Z,8.50
2022-09-26T02:42:58.767Z,7.90
2022-09-26T02:43:42.547Z,7.40
2022-09-26T02:44:30.311Z,8.33
2022-09-26T02:45:17.074Z,7.90
2022-09-26T02:45:54.439Z,8.50
2022-09-26T02:47:04.818Z,8.30
2022-09-26T02:48:08.304Z,8.00
2022-09-26T02:48:57.602Z,9.03
2022-09-26T02:49:51.001Z,8.53
2022-09-26T02:50:43.030Z,7.93
2022-09-26T02:51:26.183Z,7.30
2022-09-26T02:52:12.211Z,8.57
2022-09-26T02:52:53.811Z,8.13
2022-09-26T02:54:01.391Z,8.03
2022-09-26T02:54:50.042Z,7.63
2022-09-26T02:55:26.936Z,8.30
2022-09-26T02:56:04.991Z,8.67
2022-09-26T02:56:46.218Z,8.00
2022-09-26T02:57:26.120Z,8.80
2022-09-26T02:58:06.582Z,7.50
2022-09-26T02:58:48.128Z,7.97
2022-09-26T02:59:22.963Z,8.87
2022-09-26T03:00:02.111Z,8.23
2022-09-26T03:01:00.814Z,8.87
2022-09-26T03:01:40.316Z,7.40
2022-09-26T03:02:16.014Z,8.83
2022-09-26T03:03:06.067Z,9.13
2022-09-26T03:03:47.892Z,8.27
2022-09-26T03:04:27.882Z,7.90
2022-09-26T03:05:06.308Z,8.10
2022-09-26T03:05:41.780Z,7.73
2022-09-26T03:06:17.941Z,7.07
2022-09-26T03:06:56.687Z,8.30
2022-09-26T03:07:32.772Z,8.20
2022-09-26T03:08:08.841Z,8.37
2022-09-26T03:08:46.263Z,8.10
2022-09-26T03:09:19.998Z,7.40
2022-09-26T03:09:53.467Z,8.60
2022-09-26T03:10:30.234Z,8.50
2022-09-26T03:11:06.531Z,8.20
2022-09-26T03:11:39.919Z,8.07
2022-09-26T03:12:16.879Z,6.73
2022-09-26T03:12:49.963Z,8.77
2022-09-26T03:13:22.902Z,8.10
2022-09-26T03:13:59.505Z,8.10
2022-09-26T03:14:34.260Z,8.23
2022-09-26T03:15:08.566Z,7.87
2022-09-26T03:15:45.314Z,7.43
2022-09-26T03:16:18.543Z,7.30
2022-09-26T03:16:51.934Z,7.47
2022-09-26T03:17:29.208Z,7.20
2022-09-26T03:18:07.455Z,7.33
2022-09-26T03:18:44.379Z,7.97
2022-09-26T03:19:27.043Z,7.17
2022-09-26T03:20:03.889Z,7.80
2022-09-26T03:20:36.970Z,7.00
2022-09-26T03:21:09.687Z,7.60
2022-09-26T03:21:46.042Z,7.20
2022-09-26T03:22:18.916Z,6.87
2022-09-26T03:22:51.468Z,7.47
2022-09-26T03:23:25.290Z,7.23
2022-09-26T03:24:02.146Z,6.70
2022-09-26T03:24:36.410Z,6.87
2022-09-26T03:25:15.093Z,6.33
2022-09-26T03:26:02.480Z,7.47
2022-09-26T03:26:36.870Z,6.80
2022-09-26T03:27:09.951Z,6.70
2022-09-26T03:27:45.726Z,6.77
2022-09-26T03:28:18.432Z,6.30
2022-09-26T03:28:53.925Z,6.30
2022-09-26T03:29:26.424Z,7.40
2022-09-26T03:29:59.668Z,6.70
2022-09-26T03:30:36.669Z,5.80
2022-09-26T03:31:31.636Z,6.50
2022-09-26T03:32:16.590Z,6.77
2022-09-26T03:32:49.521Z,6.60
2022-09-26T03:33:24.479Z,6.33
2022-09-26T03:34:01.591Z,6.43
2022-09-26T03:34:35.437Z,6.53
2022-09-26T03:35:14.648Z,6.60
2022-09-26T03:35:46.979Z,7.00
2022-09-26T03:36:24.418Z,6.70
2022-09-26T03:37:01.036Z,6.70
2022-09-26T03:37:35.194Z,7.30
2022-09-26T03:38:14.127Z,6.80
2022-09-26T03:38:51.808Z,6.57
2022-09-26T03:39:43.009Z,6.43
2022-09-26T03:40:24.937Z,6.00
2022-09-26T03:41:19.755Z,6.90
2022-09-26T03:42:18.176Z,6.60
2022-09-26T03:42:54.887Z,6.00
2022-09-26T03:43:28.956Z,7.07
2022-09-26T03:44:03.246Z,6.70
2022-09-26T03:45:02.536Z,6.17
2022-09-26T03:45:38.053Z,6.13
2022-09-26T03:46:24.497Z,6.30
2022-09-26T03:46:59.600Z,6.53
2022-09-26T03:47:32.834Z,6.20
2022-09-26T03:48:08.346Z,5.80
2022-09-26T03:48:46.461Z,6.17
2022-09-26T03:49:21.381Z,6.70
2022-09-26T03:49:56.727Z,6.20
2022-09-26T03:50:33.878Z,5.80
2022-09-26T03:51:07.701Z,5.70
2022-09-26T03:51:44.387Z,5.93
2022-09-26T03:52:19.795Z,6.10
2022-09-26T03:52:54.278Z,6.47
2022-09-26T03:53:29.790Z,5.30
2022-09-26T03:54:02.192Z,5.80
2022-09-26T03:54:35.619Z,6.03
2022-09-26T03:55:11.697Z,6.10
2022-09-26T03:55:45.081Z,5.43
2022-09-26T03:56:27.188Z,5.83
2022-09-26T03:57:04.855Z,5.80
2022-09-26T03:57:41.027Z,5.70
2022-09-26T03:58:24.027Z,5.20
2022-09-26T03:58:59.168Z,6.40
2022-09-26T03:59:31.620Z,5.57
2022-09-26T04:00:07.737Z,5.77
2022-09-26T04:01:10.601Z,5.90
2022-09-26T04:01:46.475Z,5.30
2022-09-26T04:02:22.789Z,5.10
2022-09-26T04:03:10.527Z,5.93
2022-09-26T04:03:50.818Z,5.50
2022-09-26T04:04:23.855Z,5.33
2022-09-26T04:04:58.863Z,5.80
2022-09-26T04:05:31.256Z,5.33
2022-09-26T04:06:04.330Z,5.23
2022-09-26T04:06:39.459Z,5.20
2022-09-26T04:07:11.802Z,5.53
2022-09-26T04:07:44.841Z,5.40
2022-09-26T04:08:19.805Z,5.43
2022-09-26T04:08:53.406Z,5.30
2022-09-26T04:09:26.464Z,4.93
2022-09-26T04:10:05.107Z,4.93
2022-09-26T04:10:39.732Z,4.60
2022-09-26T04:11:15.171Z,5.53
2022-09-26T04:11:50.511Z,5.23
2022-09-26T04:12:22.849Z,4.97
2022-09-26T04:12:55.479Z,5.20
2022-09-26T04:14:23.257Z,5.50
2022-09-26T04:15:03.749Z,4.67
2022-09-26T04:15:38.532Z,5.10
2022-09-26T04:16:16.983Z,4.90
2022-09-26T04:16:59.757Z,5.67
2022-09-26T04:17:36.662Z,5.10
2022-09-26T04:18:15.376Z,4.67
2022-09-26T04:18:58.355Z,4.88
2022-09-26T04:19:32.280Z,4.77
2022-09-26T04:20:05.779Z,5.53
2022-09-26T04:20:43.198Z,4.57
2022-09-26T04:21:16.834Z,4.87
2022-09-26T04:21:49.143Z,4.73
2022-09-26T04:22:27.556Z,4.70
2022-09-26T04:23:01.585Z,5.00
2022-09-26T04:23:38.262Z,4.90
2022-09-26T04:24:17.346Z,5.03
2022-09-26T04:24:49.636Z,4.60
2022-09-26T04:25:28.053Z,5.00
2022-09-26T04:26:04.365Z,5.30
2022-09-26T04:26:36.706Z,4.53
2022-09-26T04:27:11.696Z,4.67
2022-09-26T04:27:44.206Z,5.03
2022-09-26T04:28:17.139Z,5.10
2022-09-26T04:28:55.483Z,4.87
2022-09-26T04:29:33.464Z,4.80
2022-09-26T04:30:21.739Z,4.40
2022-09-26T04:31:01.085Z,4.70
2022-09-26T04:31:37.038Z,4.57
2022-09-26T04:32:20.398Z,4.40
2022-09-26T04:33:21.471Z,4.60
2022-09-26T04:34:16.404Z,4.77
2022-09-26T04:34:54.019Z,4.80
2022-09-26T04:35:27.482Z,4.77
2022-09-26T04:36:00.372Z,4.80
2022-09-26T04:36:36.001Z,4.50
2022-09-26T04:37:09.169Z,5.10
2022-09-26T04:37:44.084Z,4.80
2022-09-26T04:38:19.127Z,4.80
2022-09-26T04:38:55.015Z,4.63
2022-09-26T04:39:29.978Z,5.00
2022-09-26T04:40:07.199Z,4.17
2022-09-26T04:40:45.756Z,4.70
2022-09-26T04:41:19.623Z,4.20
2022-09-26T04:42:00.872Z,4.87
2022-09-26T04:42:34.181Z,5.20
2022-09-26T04:43:07.230Z,4.50
2022-09-26T04:43:42.926Z,4.33
2022-09-26T04:44:18.028Z,4.57
2022-09-26T04:44:51.167Z,4.77
2022-09-26T04:45:28.988Z,4.30
2022-09-26T04:46:02.027Z,4.90
2022-09-26T04:46:34.970Z,4.47
2022-09-26T04:47:14.208Z,4.30
2022-09-26T04:48:07.808Z,4.60
2022-09-26T04:48:52.055Z,4.90
2022-09-26T04:49:31.283Z,4.87
2022-09-26T04:50:07.182Z,4.40
2022-09-26T04:50:39.784Z,4.37
2022-09-26T04:51:18.393Z,3.97
2022-09-26T04:52:02.768Z,4.87
2022-09-26T04:52:38.267Z,4.70
2022-09-26T04:53:11.239Z,4.23
2022-09-26T04:54:12.166Z,4.90
2022-09-26T04:54:49.816Z,4.50
2022-09-26T04:55:25.914Z,4.80
2022-09-26T04:56:06.863Z,4.63
2022-09-26T04:56:39.779Z,4.53
2022-09-26T04:57:19.895Z,4.60
2022-09-26T04:57:54.450Z,4.80
2022-09-26T04:58:35.647Z,4.03
2022-09-26T04:59:08.032Z,3.97
2022-09-26T05:00:07.297Z,5.00
2022-09-26T05:00:46.794Z,4.10
2022-09-26T05:01:25.760Z,4.40
2022-09-26T05:02:29.942Z,4.80
2022-09-26T05:03:03.035Z,4.50
2022-09-26T05:03:37.226Z,4.53
2022-09-26T05:04:13.560Z,4.47
2022-09-26T05:04:51.310Z,4.50
2022-09-26T05:05:24.467Z,4.73
2022-09-26T05:05:59.453Z,4.77
2022-09-26T05:06:31.909Z,4.27
2022-09-26T05:07:09.131Z,3.93
2022-09-26T05:07:42.883Z,4.57
2022-09-26T05:08:15.848Z,4.50
2022-09-26T05:08:50.987Z,4.77
2022-09-26T05:09:31.757Z,4.13
2022-09-26T05:10:15.691Z,4.20
2022-09-26T05:10:57.086Z,4.20
2022-09-26T05:11:33.124Z,4.37
2022-09-26T05:12:05.683Z,4.30
2022-09-26T05:12:39.407Z,4.20
2022-09-26T05:13:14.326Z,4.17
2022-09-26T05:13:52.446Z,4.20
2022-09-26T05:14:28.449Z,4.40
2022-09-26T05:15:01.943Z,4.40
2022-09-26T05:15:39.901Z,4.40
2022-09-26T05:16:16.297Z,4.57
2022-09-26T05:16:50.174Z,4.33
2022-09-26T05:17:24.462Z,5.00
2022-09-26T05:18:04.154Z,4.70
2022-09-26T05:18:37.187Z,4.60
2022-09-26T05:19:09.587Z,4.40
2022-09-26T05:19:53.375Z,4.77
2022-09-26T05:20:31.611Z,4.67
2022-09-26T05:21:11.327Z,4.30
2022-09-26T05:21:43.647Z,4.40
2022-09-26T05:22:16.017Z,5.07
2022-09-26T05:22:51.091Z,4.87
2022-09-26T05:23:44.540Z,4.20
2022-09-26T05:24:33.474Z,3.90
2022-09-26T05:25:21.563Z,4.23
2022-09-26T05:26:08.838Z,4.40
2022-09-26T05:26:43.839Z,4.30
2022-09-26T05:27:19.358Z,4.27
2022-09-26T05:27:53.544Z,4.57
2022-09-26T05:28:27.643Z,4.50
2022-09-26T05:29:16.827Z,4.10
2022-09-26T05:29:56.544Z,4.07
2022-09-26T05:30:32.608Z,4.27
2022-09-26T05:31:05.328Z,4.30
2022-09-26T05:31:38.193Z,4.50
2022-09-26T05:32:14.000Z,4.10
2022-09-26T05:32:50.238Z,4.63
2022-09-26T05:33:23.362Z,4.57
2022-09-26T05:34:00.699Z,4.57
2022-09-26T05:34:33.107Z,4.43
2022-09-26T05:35:09.284Z,4.37
2022-09-26T05:35:54.266Z,5.00
2022-09-26T05:36:27.212Z,4.50
2022-09-26T05:37:02.165Z,4.40
2022-09-26T05:37:34.540Z,4.40
2022-09-26T05:38:07.343Z,3.93
2022-09-26T05:38:46.832Z,4.15
2022-09-26T05:39:37.849Z,4.75
2022-09-26T05:40:29.062Z,5.00
2022-09-26T05:41:01.747Z,4.53
2022-09-26T05:41:34.283Z,4.00
2022-09-26T05:42:07.541Z,4.47
2022-09-26T05:42:43.055Z,8.65
2022-09-26T05:43:15.838Z,4.50
2022-09-26T05:43:51.686Z,4.37
2022-09-26T05:44:24.018Z,4.35
2022-09-26T05:44:56.383Z,4.00
2022-09-26T05:45:31.485Z,4.33
2022-09-26T05:46:11.105Z,4.13
2022-09-26T05:46:50.486Z,4.40
2022-09-26T05:47:26.565Z,4.47
2022-09-26T05:48:01.496Z,4.27
2022-09-26T05:48:35.413Z,4.10
2022-09-26T05:49:12.019Z,4.17
2022-09-26T05:49:44.459Z,4.50
2022-09-26T05:50:25.249Z,4.47
2022-09-26T05:51:00.235Z,3.90
2022-09-26T05:51:33.627Z,4.97
2022-09-26T05:52:06.254Z,5.10
2022-09-26T05:52:41.715Z,4.75
2022-09-26T05:53:21.938Z,4.70
2022-09-26T05:53:57.742Z,4.20
2022-09-26T05:54:32.238Z,3.93
2022-09-26T05:55:08.085Z,4.97
2022-09-26T05:56:02.016Z,4.23
2022-09-26T05:56:44.383Z,4.53
2022-09-26T05:57:39.276Z,4.73
2022-09-26T05:58:11.616Z,4.50
2022-09-26T05:59:05.263Z,4.53
2022-09-26T05:59:40.090Z,4.53
2022-09-26T06:00:32.405Z,4.20
2022-09-26T06:01:09.480Z,4.77
2022-09-26T06:01:42.088Z,3.77
2022-09-26T06:02:28.428Z,3.70
2022-09-26T06:03:24.766Z,3.67
2022-09-26T06:04:10.427Z,4.10
2022-09-26T06:05:00.083Z,3.55
2022-09-26T06:06:01.838Z,3.77
2022-09-26T06:06:39.616Z,3.97
2022-09-26T06:07:17.113Z,4.28
2022-09-26T06:07:49.758Z,3.97
2022-09-26T06:08:42.010Z,4.30
2022-09-26T06:09:35.137Z,4.05
2022-09-26T06:10:48.463Z,4.05
2022-09-26T06:11:22.727Z,3.80
2022-09-26T06:11:55.399Z,3.78
2022-09-26T06:12:30.354Z,3.87
2022-09-26T06:13:03.051Z,4.30
2022-09-26T06:13:41.436Z,4.17
2022-09-26T06:14:13.743Z,4.00
2022-09-26T06:14:46.923Z,4.10
2022-09-26T06:15:23.204Z,3.83
2022-09-26T06:15:57.470Z,3.70
2022-09-26T06:16:34.105Z,4.13
2022-09-26T06:17:06.524Z,3.87
2022-09-26T06:17:38.854Z,3.77
2022-09-26T06:18:13.851Z,4.47
2022-09-26T06:18:47.312Z,3.50
2022-09-26T06:19:22.946Z,3.67
2022-09-26T06:19:58.492Z,3.60
2022-09-26T06:20:32.460Z,3.73
2022-09-26T06:21:09.583Z,4.80
2022-09-26T06:21:46.219Z,4.60
2022-09-26T06:22:22.021Z,4.43
2022-09-26T06:22:55.322Z,4.60
2022-09-26T06:23:30.299Z,4.50
2022-09-26T06:24:03.259Z,3.83
2022-09-26T06:24:39.704Z,4.13
2022-09-26T06:25:16.279Z,4.40
2022-09-26T06:25:48.589Z,4.37
2022-09-26T06:26:25.579Z,4.33
2022-09-26T06:26:58.738Z,3.90
2022-09-26T06:27:32.809Z,3.60
2022-09-26T06:28:07.778Z,3.90
2022-09-26T06:28:42.046Z,4.17
2022-09-26T06:29:14.683Z,4.17
2022-09-26T06:29:50.619Z,4.00
2022-09-26T06:30:23.701Z,3.67
2022-09-26T06:31:00.395Z,3.63
2022-09-26T06:31:55.399Z,3.47
2022-09-26T06:32:30.459Z,3.60
2022-09-26T06:33:33.530Z,3.93
2022-09-26T06:34:28.989Z,3.57
2022-09-26T06:35:13.111Z,3.80
2022-09-26T06:36:03.752Z,3.60
2022-09-26T06:36:44.002Z,3.70
2022-09-26T06:37:18.935Z,3.47
2022-09-26T06:37:51.843Z,4.07
2022-09-26T06:38:24.186Z,3.57
2022-09-26T06:38:59.122Z,3.90
2022-09-26T06:39:35.904Z,3.50
2022-09-26T06:40:11.703Z,3.60
2022-09-26T06:40:47.459Z,3.77
2022-09-26T06:41:19.972Z,3.40
2022-09-26T06:41:53.011Z,3.73
2022-09-26T06:42:43.573Z,3.80
2022-09-26T06:43:26.078Z,3.80
2022-09-26T06:44:09.805Z,3.97
2022-09-26T06:45:10.472Z,3.50
2022-09-26T06:46:05.486Z,3.83
2022-09-26T06:46:46.492Z,3.73
2022-09-26T06:47:22.285Z,3.80
2022-09-26T06:47:59.002Z,3.70
2022-09-26T06:48:59.960Z,4.17
2022-09-26T06:49:53.427Z,3.30
2022-09-26T06:50:34.623Z,3.70
2022-09-26T06:51:13.910Z,3.67
2022-09-26T06:51:49.729Z,4.20
2022-09-26T06:52:23.299Z,4.00
2022-09-26T06:53:04.596Z,4.40
2022-09-26T06:53:46.101Z,3.53
2022-09-26T06:54:24.862Z,4.10
2022-09-26T06:54:57.440Z,3.97
2022-09-26T06:55:29.823Z,4.50
2022-09-26T06:56:06.196Z,3.70
2022-09-26T06:56:38.508Z,3.63
2022-09-26T06:57:15.069Z,3.90
2022-09-26T06:57:50.331Z,4.10
2022-09-26T06:58:25.045Z,4.03
2022-09-26T06:59:12.361Z,3.90
2022-09-26T06:59:53.751Z,3.93
2022-09-26T07:00:35.834Z,3.60
2022-09-26T07:01:34.695Z,3.60
2022-09-26T07:02:38.673Z,3.57
2022-09-26T07:03:31.775Z,3.57
2022-09-26T07:04:32.220Z,3.63
2022-09-26T07:05:32.226Z,3.73
2022-09-26T07:06:07.674Z,3.90
2022-09-26T07:06:40.518Z,3.40
2022-09-26T07:07:15.474Z,3.87
2022-09-26T07:07:50.703Z,4.20
2022-09-26T07:08:57.775Z,3.83
2022-09-26T07:09:36.587Z,3.88
2022-09-26T07:10:20.038Z,3.40
2022-09-26T07:11:28.187Z,3.70
2022-09-26T07:12:15.758Z,4.00
2022-09-26T07:12:53.220Z,3.93
2022-09-26T07:13:26.550Z,4.03
2022-09-26T07:14:02.524Z,3.53
2022-09-26T07:14:36.137Z,3.80
2022-09-26T07:15:19.835Z,3.43
2022-09-26T07:15:53.048Z,3.30
2022-09-26T07:16:34.139Z,3.40
2022-09-26T07:17:30.478Z,4.20
2022-09-26T07:18:20.595Z,3.57
2022-09-26T07:19:09.459Z,4.10
2022-09-26T07:19:57.904Z,3.30
2022-09-26T07:21:07.873Z,3.20
2022-09-26T07:22:06.454Z,3.80
2022-09-26T07:23:03.386Z,3.30
2022-09-26T07:23:35.865Z,3.10
2022-09-26T07:24:08.827Z,3.93
2022-09-26T07:24:49.028Z,3.40
2022-09-26T07:25:21.883Z,3.33
2022-09-26T07:25:56.874Z,2.70
2022-09-26T07:26:29.371Z,3.33
2022-09-26T07:27:03.058Z,3.43
2022-09-26T07:27:38.014Z,3.00
2022-09-26T07:28:10.404Z,3.10
2022-09-26T07:28:56.831Z,3.47
2022-09-26T07:29:31.227Z,3.23
2022-09-26T07:30:04.000Z,3.30
2022-09-26T07:30:40.372Z,3.23
2022-09-26T07:31:19.533Z,2.97
2022-09-26T07:32:04.773Z,3.27
2022-09-26T07:32:47.988Z,3.20
2022-09-26T07:33:39.597Z,3.47
2022-09-26T07:34:18.608Z,3.57
2022-09-26T07:34:53.336Z,3.13
2022-09-26T07:35:27.510Z,3.13
2022-09-26T07:36:05.503Z,3.40
2022-09-26T07:36:39.863Z,3.50
2022-09-26T07:37:16.775Z,3.30
2022-09-26T07:37:52.588Z,3.20
2022-09-26T07:38:28.245Z,3.50
2022-09-26T07:39:04.145Z,3.03
2022-09-26T07:39:36.498Z,3.17
2022-09-26T07:40:12.545Z,3.57
2022-09-26T07:40:45.020Z,3.00
2022-09-26T07:41:20.607Z,3.50
2022-09-26T07:41:53.338Z,3.03
2022-09-26T07:42:25.711Z,3.87
2022-09-26T07:43:19.723Z,3.20
2022-09-26T07:44:52.982Z,3.67
2022-09-26T07:45:56.823Z,3.90
2022-09-26T07:46:44.443Z,3.50
2022-09-26T07:47:32.272Z,3.40
2022-09-26T07:48:19.907Z,3.13
2022-09-26T07:49:45.767Z,2.60
2022-09-26T07:50:38.972Z,3.17
2022-09-26T07:51:32.559Z,3.10
2022-09-26T07:52:10.323Z,2.90
2022-09-26T07:53:19.445Z,3.83
2022-09-26T07:54:13.104Z,3.30
2022-09-26T07:55:07.152Z,3.17
2022-09-26T07:56:10.645Z,3.30
2022-09-26T07:57:07.807Z,3.20
2022-09-26T07:57:50.173Z,3.87
2022-09-26T07:58:46.463Z,3.60
2022-09-26T07:59:54.499Z,3.30
2022-09-26T08:00:48.742Z,3.83
2022-09-26T08:02:02.359Z,3.10
2022-09-26T08:02:47.012Z,3.00
2022-09-26T08:03:26.372Z,3.00
2022-09-26T08:03:59.025Z,2.73
2022-09-26T08:04:45.918Z,2.90
2022-09-26T08:05:20.633Z,2.37
2022-09-26T08:05:55.251Z,3.40
2022-09-26T08:06:30.189Z,3.17
2022-09-26T08:07:02.736Z,3.20
2022-09-26T08:07:38.722Z,2.93
2022-09-26T08:08:21.044Z,3.23
2022-09-26T08:09:08.123Z,3.00
2022-09-26T08:10:03.169Z,2.90
2022-09-26T08:11:16.719Z,3.20
2022-09-26T08:12:21.289Z,2.70
2022-09-26T08:13:08.991Z,2.83
2022-09-26T08:14:02.777Z,2.90
2022-09-26T08:14:44.935Z,3.58
2022-09-26T08:15:21.402Z,3.23
2022-09-26T08:16:06.280Z,3.43
2022-09-26T08:16:45.713Z,3.00
2022-09-26T08:17:21.505Z,3.17
2022-09-26T08:17:54.600Z,3.20
2022-09-26T08:18:26.999Z,2.57
2022-09-26T08:19:02.440Z,2.30
2022-09-26T08:19:34.980Z,2.93
2022-09-26T08:20:08.661Z,2.70
2022-09-26T08:20:47.437Z,2.90
2022-09-26T08:21:20.603Z,2.70
2022-09-26T08:21:59.261Z,2.97
2022-09-26T08:22:31.883Z,2.60
2022-09-26T08:23:05.064Z,2.50
2022-09-26T08:23:40.622Z,2.40
2022-09-26T08:24:31.547Z,2.87
2022-09-26T08:25:31.461Z,3.13
2022-09-26T08:26:10.111Z,3.03
2022-09-26T08:26:49.114Z,2.60
2022-09-26T08:27:28.743Z,2.40
2022-09-26T08:28:02.183Z,2.80
2022-09-26T08:28:34.766Z,3.00
2022-09-26T08:29:11.396Z,2.80
2022-09-26T08:29:49.090Z,2.40
2022-09-26T08:30:31.429Z,2.43
2022-09-26T08:31:07.403Z,2.37
2022-09-26T08:31:43.140Z,2.93
2022-09-26T08:32:16.488Z,2.60
2022-09-26T08:32:59.009Z,2.50
2022-09-26T08:33:34.524Z,2.77
2022-09-26T08:34:09.907Z,2.60
2022-09-26T08:34:42.631Z,2.20
2022-09-26T08:35:52.972Z,2.40
2022-09-26T08:36:58.129Z,2.57
2022-09-26T08:37:47.710Z,2.43
2022-09-26T08:38:39.016Z,2.10
2022-09-26T08:39:33.635Z,2.50
2022-09-26T08:40:39.358Z,2.70
2022-09-26T08:41:48.657Z,2.33